sensor_id;sensor_type;location;lat;lon;timestamp;temperature;humidity
7576;DHT22;3829;50.798;4.358;2023-05-23T00:02:19;13.60;99.90
7576;DHT22;3829;50.798;4.358;2023-05-23T00:04:44;13.60;99.90
7576;DHT22;3829;50.798;4.358;2023-05-23T00:07:10;13.70;99.90
7576;DHT22;3829;50.798;4.358;2023-05-23T00:09:35;13.70;99.90
7576;DHT22;3829;50.798;4.358;2023-05-23T00:12:01;13.60;99.90
7576;DHT22;3829;50.798;4.358;2023-05-23T00:14:27;13.60;99.90
7576;DHT22;3829;50.798;4.358;2023-05-23T00:16:58;13.50;99.90
7576;DHT22;3829;50.798;4.358;2023-05-23T00:19:25;13.60;99.90
7576;DHT22;3829;50.798;4.358;2023-05-23T00:21:51;13.60;99.90
7576;DHT22;3829;50.798;4.358;2023-05-23T00:24:18;13.70;99.90
7576;DHT22;3829;50.798;4.358;2023-05-23T00:26:45;13.80;99.90
7576;DHT22;3829;50.798;4.358;2023-05-23T00:29:10;13.80;99.90
7576;DHT22;3829;50.798;4.358;2023-05-23T00:31:41;13.90;99.90
7576;DHT22;3829;50.798;4.358;2023-05-23T00:34:07;13.90;99.90
7576;DHT22;3829;50.798;4.358;2023-05-23T00:36:33;13.90;99.90
7576;DHT22;3829;50.798;4.358;2023-05-23T00:39:02;14.00;99.90
7576;DHT22;3829;50.798;4.358;2023-05-23T00:41:28;14.00;99.90
7576;DHT22;3829;50.798;4.358;2023-05-23T00:43:55;14.00;99.90
7576;DHT22;3829;50.798;4.358;2023-05-23T00:46:22;14.10;99.90
7576;DHT22;3829;50.798;4.358;2023-05-23T00:48:48;14.10;99.90
7576;DHT22;3829;50.798;4.358;2023-05-23T00:51:14;14.20;99.90
7576;DHT22;3829;50.798;4.358;2023-05-23T00:53:40;14.10;99.90
7576;DHT22;3829;50.798;4.358;2023-05-23T00:56:06;14.10;99.90
7576;DHT22;3829;50.798;4.358;2023-05-23T00:58:32;14.10;99.90
7576;DHT22;3829;50.798;4.358;2023-05-23T01:00:57;14.20;99.90
7576;DHT22;3829;50.798;4.358;2023-05-23T01:03:24;14.30;99.90
7576;DHT22;3829;50.798;4.358;2023-05-23T01:05:54;14.30;99.90
7576;DHT22;3829;50.798;4.358;2023-05-23T01:08:21;14.30;99.90
7576;DHT22;3829;50.798;4.358;2023-05-23T01:10:46;14.40;99.90
7576;DHT22;3829;50.798;4.358;2023-05-23T01:13:30;14.20;99.90
7576;DHT22;3829;50.798;4.358;2023-05-23T01:16:06;14.10;99.90
7576;DHT22;3829;50.798;4.358;2023-05-23T01:18:39;14.00;99.90
7576;DHT22;3829;50.798;4.358;2023-05-23T01:21:14;14.00;99.90
7576;DHT22;3829;50.798;4.358;2023-05-23T01:26:56;14.20;99.90
7576;DHT22;3829;50.798;4.358;2023-05-23T01:29:28;14.20;99.90
7576;DHT22;3829;50.798;4.358;2023-05-23T01:31:57;14.20;99.90
7576;DHT22;3829;50.798;4.358;2023-05-23T01:34:23;14.40;99.90
7576;DHT22;3829;50.798;4.358;2023-05-23T01:36:53;14.30;99.90
7576;DHT22;3829;50.798;4.358;2023-05-23T01:39:20;14.30;99.90
7576;DHT22;3829;50.798;4.358;2023-05-23T01:41:46;14.30;99.90
7576;DHT22;3829;50.798;4.358;2023-05-23T01:44:12;14.20;99.90
7576;DHT22;3829;50.798;4.358;2023-05-23T01:46:38;14.30;99.90
7576;DHT22;3829;50.798;4.358;2023-05-23T01:49:07;14.30;99.90
7576;DHT22;3829;50.798;4.358;2023-05-23T01:51:33;14.40;99.90
7576;DHT22;3829;50.798;4.358;2023-05-23T01:53:59;14.40;99.90
7576;DHT22;3829;50.798;4.358;2023-05-23T01:56:26;14.50;99.90
7576;DHT22;3829;50.798;4.358;2023-05-23T01:58:52;14.60;99.90
7576;DHT22;3829;50.798;4.358;2023-05-23T02:01:19;14.60;99.90
7576;DHT22;3829;50.798;4.358;2023-05-23T02:03:44;14.60;99.90
7576;DHT22;3829;50.798;4.358;2023-05-23T02:06:10;14.60;99.90
7576;DHT22;3829;50.798;4.358;2023-05-23T02:08:36;14.60;99.90
7576;DHT22;3829;50.798;4.358;2023-05-23T02:11:02;14.50;99.90
7576;DHT22;3829;50.798;4.358;2023-05-23T02:13:28;14.40;99.90
7576;DHT22;3829;50.798;4.358;2023-05-23T02:15:53;14.30;99.90
7576;DHT22;3829;50.798;4.358;2023-05-23T02:18:19;14.40;99.90
7576;DHT22;3829;50.798;4.358;2023-05-23T02:20:45;14.20;99.90
7576;DHT22;3829;50.798;4.358;2023-05-23T02:23:11;14.20;99.90
7576;DHT22;3829;50.798;4.358;2023-05-23T02:25:37;14.20;99.90
7576;DHT22;3829;50.798;4.358;2023-05-23T02:28:02;14.30;99.90
7576;DHT22;3829;50.798;4.358;2023-05-23T02:30:28;14.40;99.90
7576;DHT22;3829;50.798;4.358;2023-05-23T02:32:53;14.50;99.90
7576;DHT22;3829;50.798;4.358;2023-05-23T02:35:19;14.40;99.90
7576;DHT22;3829;50.798;4.358;2023-05-23T02:37:45;14.40;99.90
7576;DHT22;3829;50.798;4.358;2023-05-23T02:40:11;14.40;99.90
7576;DHT22;3829;50.798;4.358;2023-05-23T02:42:36;14.40;99.90
7576;DHT22;3829;50.798;4.358;2023-05-23T02:45:02;14.40;99.90
7576;DHT22;3829;50.798;4.358;2023-05-23T02:47:28;14.30;99.90
7576;DHT22;3829;50.798;4.358;2023-05-23T02:49:53;14.20;99.90
7576;DHT22;3829;50.798;4.358;2023-05-23T02:52:19;14.20;99.90
7576;DHT22;3829;50.798;4.358;2023-05-23T02:54:45;14.20;99.90
7576;DHT22;3829;50.798;4.358;2023-05-23T02:57:10;14.30;99.90
7576;DHT22;3829;50.798;4.358;2023-05-23T02:59:36;14.30;99.90
7576;DHT22;3829;50.798;4.358;2023-05-23T03:02:02;14.30;99.90
7576;DHT22;3829;50.798;4.358;2023-05-23T03:04:27;14.20;99.90
7576;DHT22;3829;50.798;4.358;2023-05-23T03:06:53;14.10;99.90
7576;DHT22;3829;50.798;4.358;2023-05-23T03:09:19;14.00;99.90
7576;DHT22;3829;50.798;4.358;2023-05-23T03:11:45;13.90;99.90
7576;DHT22;3829;50.798;4.358;2023-05-23T03:14:11;13.90;99.90
7576;DHT22;3829;50.798;4.358;2023-05-23T03:16:37;13.90;99.90
7576;DHT22;3829;50.798;4.358;2023-05-23T03:19:02;14.00;99.90
7576;DHT22;3829;50.798;4.358;2023-05-23T03:21:29;14.00;99.90
7576;DHT22;3829;50.798;4.358;2023-05-23T03:23:56;14.10;99.90
7576;DHT22;3829;50.798;4.358;2023-05-23T03:26:21;14.10;99.90
7576;DHT22;3829;50.798;4.358;2023-05-23T03:28:48;14.10;99.90
7576;DHT22;3829;50.798;4.358;2023-05-23T03:31:14;14.20;99.90
7576;DHT22;3829;50.798;4.358;2023-05-23T03:33:40;14.10;99.90
7576;DHT22;3829;50.798;4.358;2023-05-23T03:36:05;14.00;99.90
7576;DHT22;3829;50.798;4.358;2023-05-23T03:38:31;14.10;99.90
7576;DHT22;3829;50.798;4.358;2023-05-23T03:40:57;14.10;99.90
7576;DHT22;3829;50.798;4.358;2023-05-23T03:43:22;14.10;99.90
7576;DHT22;3829;50.798;4.358;2023-05-23T03:45:48;13.90;99.90
7576;DHT22;3829;50.798;4.358;2023-05-23T03:48:14;13.80;99.90
7576;DHT22;3829;50.798;4.358;2023-05-23T03:50:40;13.80;99.90
7576;DHT22;3829;50.798;4.358;2023-05-23T03:53:06;13.70;99.90
7576;DHT22;3829;50.798;4.358;2023-05-23T03:55:31;13.60;99.90
7576;DHT22;3829;50.798;4.358;2023-05-23T03:57:57;13.60;99.90
7576;DHT22;3829;50.798;4.358;2023-05-23T04:00:23;13.60;99.90
7576;DHT22;3829;50.798;4.358;2023-05-23T04:02:48;13.70;99.90
7576;DHT22;3829;50.798;4.358;2023-05-23T04:05:16;13.70;99.90
7576;DHT22;3829;50.798;4.358;2023-05-23T04:07:42;13.70;99.90
7576;DHT22;3829;50.798;4.358;2023-05-23T04:10:08;13.80;99.90
7576;DHT22;3829;50.798;4.358;2023-05-23T04:12:35;13.80;99.90
7576;DHT22;3829;50.798;4.358;2023-05-23T04:15:01;13.80;99.90
7576;DHT22;3829;50.798;4.358;2023-05-23T04:17:27;13.90;99.90
7576;DHT22;3829;50.798;4.358;2023-05-23T04:19:54;13.80;99.90
7576;DHT22;3829;50.798;4.358;2023-05-23T04:22:19;13.70;99.90
7576;DHT22;3829;50.798;4.358;2023-05-23T04:24:45;13.60;99.90
7576;DHT22;3829;50.798;4.358;2023-05-23T04:27:10;13.70;99.90
7576;DHT22;3829;50.798;4.358;2023-05-23T04:29:36;13.80;99.90
7576;DHT22;3829;50.798;4.358;2023-05-23T04:32:02;13.80;99.90
7576;DHT22;3829;50.798;4.358;2023-05-23T04:34:28;13.70;99.90
7576;DHT22;3829;50.798;4.358;2023-05-23T04:36:54;13.70;99.90
7576;DHT22;3829;50.798;4.358;2023-05-23T04:39:20;13.80;99.90
7576;DHT22;3829;50.798;4.358;2023-05-23T04:41:46;13.90;99.90
7576;DHT22;3829;50.798;4.358;2023-05-23T04:44:12;13.90;99.90
7576;DHT22;3829;50.798;4.358;2023-05-23T04:46:39;14.10;99.90
7576;DHT22;3829;50.798;4.358;2023-05-23T04:49:07;14.10;99.90
7576;DHT22;3829;50.798;4.358;2023-05-23T04:51:33;14.20;99.90
7576;DHT22;3829;50.798;4.358;2023-05-23T04:53:59;14.20;99.90
7576;DHT22;3829;50.798;4.358;2023-05-23T04:56:25;14.30;99.90
7576;DHT22;3829;50.798;4.358;2023-05-23T04:58:52;14.30;99.90
7576;DHT22;3829;50.798;4.358;2023-05-23T05:01:18;14.30;99.90
7576;DHT22;3829;50.798;4.358;2023-05-23T05:03:44;14.30;99.90
7576;DHT22;3829;50.798;4.358;2023-05-23T05:06:09;14.40;99.90
7576;DHT22;3829;50.798;4.358;2023-05-23T05:08:35;14.40;99.90
7576;DHT22;3829;50.798;4.358;2023-05-23T05:11:01;14.50;99.90
7576;DHT22;3829;50.798;4.358;2023-05-23T05:13:27;14.60;99.90
7576;DHT22;3829;50.798;4.358;2023-05-23T05:15:52;14.70;99.90
7576;DHT22;3829;50.798;4.358;2023-05-23T05:18:18;14.70;99.90
7576;DHT22;3829;50.798;4.358;2023-05-23T05:20:43;14.60;99.90
7576;DHT22;3829;50.798;4.358;2023-05-23T05:23:09;14.60;99.90
7576;DHT22;3829;50.798;4.358;2023-05-23T05:25:35;14.40;99.90
7576;DHT22;3829;50.798;4.358;2023-05-23T05:28:02;14.40;99.90
7576;DHT22;3829;50.798;4.358;2023-05-23T05:30:31;14.40;99.90
7576;DHT22;3829;50.798;4.358;2023-05-23T05:33:00;14.30;99.90
7576;DHT22;3829;50.798;4.358;2023-05-23T05:35:26;14.40;99.90
7576;DHT22;3829;50.798;4.358;2023-05-23T05:37:52;14.30;99.90
7576;DHT22;3829;50.798;4.358;2023-05-23T05:40:17;14.30;99.90
7576;DHT22;3829;50.798;4.358;2023-05-23T05:42:43;14.30;99.90
7576;DHT22;3829;50.798;4.358;2023-05-23T05:45:09;14.10;99.90
7576;DHT22;3829;50.798;4.358;2023-05-23T05:47:35;14.20;99.90
7576;DHT22;3829;50.798;4.358;2023-05-23T05:50:04;14.10;99.90
7576;DHT22;3829;50.798;4.358;2023-05-23T05:52:29;14.20;99.90
7576;DHT22;3829;50.798;4.358;2023-05-23T05:54:55;14.30;99.90
7576;DHT22;3829;50.798;4.358;2023-05-23T05:57:22;14.30;99.90
7576;DHT22;3829;50.798;4.358;2023-05-23T05:59:47;14.40;99.90
7576;DHT22;3829;50.798;4.358;2023-05-23T06:02:13;14.50;99.90
7576;DHT22;3829;50.798;4.358;2023-05-23T06:04:38;14.50;99.90
7576;DHT22;3829;50.798;4.358;2023-05-23T06:07:04;14.40;99.90
7576;DHT22;3829;50.798;4.358;2023-05-23T06:09:30;14.40;99.90
7576;DHT22;3829;50.798;4.358;2023-05-23T06:11:55;14.40;99.90
7576;DHT22;3829;50.798;4.358;2023-05-23T06:14:21;14.50;99.90
7576;DHT22;3829;50.798;4.358;2023-05-23T06:16:46;14.30;99.90
7576;DHT22;3829;50.798;4.358;2023-05-23T06:19:12;14.00;99.90
7576;DHT22;3829;50.798;4.358;2023-05-23T06:21:38;13.80;99.90
7576;DHT22;3829;50.798;4.358;2023-05-23T06:24:03;13.70;99.90
7576;DHT22;3829;50.798;4.358;2023-05-23T06:26:29;13.70;99.90
7576;DHT22;3829;50.798;4.358;2023-05-23T06:28:54;13.60;99.90
7576;DHT22;3829;50.798;4.358;2023-05-23T06:31:20;13.70;99.90
7576;DHT22;3829;50.798;4.358;2023-05-23T06:33:45;13.60;99.90
7576;DHT22;3829;50.798;4.358;2023-05-23T06:36:11;13.40;99.90
7576;DHT22;3829;50.798;4.358;2023-05-23T06:38:37;13.40;99.90
7576;DHT22;3829;50.798;4.358;2023-05-23T06:41:02;13.30;99.90
7576;DHT22;3829;50.798;4.358;2023-05-23T06:43:31;13.30;99.90
7576;DHT22;3829;50.798;4.358;2023-05-23T06:45:56;13.10;99.90
7576;DHT22;3829;50.798;4.358;2023-05-23T06:48:22;13.00;99.90
7576;DHT22;3829;50.798;4.358;2023-05-23T06:50:48;13.00;99.90
7576;DHT22;3829;50.798;4.358;2023-05-23T06:53:13;13.10;99.90
7576;DHT22;3829;50.798;4.358;2023-05-23T06:55:40;13.40;99.90
7576;DHT22;3829;50.798;4.358;2023-05-23T06:58:06;13.50;99.90
7576;DHT22;3829;50.798;4.358;2023-05-23T07:00:32;13.60;99.90
7576;DHT22;3829;50.798;4.358;2023-05-23T07:02:57;13.80;99.90
7576;DHT22;3829;50.798;4.358;2023-05-23T07:05:30;13.80;99.90
7576;DHT22;3829;50.798;4.358;2023-05-23T07:07:57;13.90;99.90
7576;DHT22;3829;50.798;4.358;2023-05-23T07:10:23;13.90;99.90
7576;DHT22;3829;50.798;4.358;2023-05-23T07:12:48;14.00;99.90
7576;DHT22;3829;50.798;4.358;2023-05-23T07:15:14;14.10;99.90
7576;DHT22;3829;50.798;4.358;2023-05-23T07:17:40;14.30;99.90
7576;DHT22;3829;50.798;4.358;2023-05-23T07:20:06;14.50;99.90
7576;DHT22;3829;50.798;4.358;2023-05-23T07:22:32;14.80;99.90
7576;DHT22;3829;50.798;4.358;2023-05-23T07:24:58;14.40;99.90
7576;DHT22;3829;50.798;4.358;2023-05-23T07:27:23;14.40;99.90
7576;DHT22;3829;50.798;4.358;2023-05-23T07:29:49;14.60;99.90
7576;DHT22;3829;50.798;4.358;2023-05-23T07:32:15;14.80;99.90
7576;DHT22;3829;50.798;4.358;2023-05-23T07:34:40;14.90;99.90
7576;DHT22;3829;50.798;4.358;2023-05-23T07:37:06;14.80;99.90
7576;DHT22;3829;50.798;4.358;2023-05-23T07:39:32;15.10;99.90
7576;DHT22;3829;50.798;4.358;2023-05-23T07:41:57;15.30;99.90
7576;DHT22;3829;50.798;4.358;2023-05-23T07:44:23;15.30;99.90
7576;DHT22;3829;50.798;4.358;2023-05-23T07:46:49;15.30;99.90
7576;DHT22;3829;50.798;4.358;2023-05-23T07:49:14;15.40;99.90
7576;DHT22;3829;50.798;4.358;2023-05-23T07:51:40;15.20;99.90
7576;DHT22;3829;50.798;4.358;2023-05-23T07:54:06;15.30;99.90
7576;DHT22;3829;50.798;4.358;2023-05-23T07:56:31;15.30;99.90
7576;DHT22;3829;50.798;4.358;2023-05-23T07:58:57;15.50;99.90
7576;DHT22;3829;50.798;4.358;2023-05-23T08:01:23;15.70;99.90
7576;DHT22;3829;50.798;4.358;2023-05-23T08:03:49;15.70;99.90
7576;DHT22;3829;50.798;4.358;2023-05-23T08:06:15;16.00;99.90
7576;DHT22;3829;50.798;4.358;2023-05-23T08:08:41;16.00;99.90
7576;DHT22;3829;50.798;4.358;2023-05-23T08:11:08;16.40;99.90
7576;DHT22;3829;50.798;4.358;2023-05-23T08:13:33;16.30;99.90
7576;DHT22;3829;50.798;4.358;2023-05-23T08:15:59;16.00;99.90
7576;DHT22;3829;50.798;4.358;2023-05-23T08:18:25;15.80;99.90
7576;DHT22;3829;50.798;4.358;2023-05-23T08:20:51;15.80;99.90
7576;DHT22;3829;50.798;4.358;2023-05-23T08:23:16;15.50;99.90
7576;DHT22;3829;50.798;4.358;2023-05-23T08:25:42;15.40;99.90
7576;DHT22;3829;50.798;4.358;2023-05-23T08:28:08;15.50;99.90
7576;DHT22;3829;50.798;4.358;2023-05-23T08:30:33;15.70;99.90
7576;DHT22;3829;50.798;4.358;2023-05-23T08:32:59;15.80;99.90
7576;DHT22;3829;50.798;4.358;2023-05-23T08:35:29;15.90;99.90
7576;DHT22;3829;50.798;4.358;2023-05-23T08:37:59;16.00;99.90
7576;DHT22;3829;50.798;4.358;2023-05-23T08:40:26;16.10;99.90
7576;DHT22;3829;50.798;4.358;2023-05-23T08:42:55;16.20;99.90
7576;DHT22;3829;50.798;4.358;2023-05-23T08:45:21;16.10;99.90
7576;DHT22;3829;50.798;4.358;2023-05-23T08:47:46;16.00;99.90
7576;DHT22;3829;50.798;4.358;2023-05-23T08:50:15;16.10;99.90
7576;DHT22;3829;50.798;4.358;2023-05-23T08:52:43;16.10;99.90
7576;DHT22;3829;50.798;4.358;2023-05-23T08:55:12;15.80;99.90
7576;DHT22;3829;50.798;4.358;2023-05-23T08:57:38;15.70;99.90
7576;DHT22;3829;50.798;4.358;2023-05-23T09:00:10;15.80;99.90
7576;DHT22;3829;50.798;4.358;2023-05-23T09:02:43;15.90;99.90
7576;DHT22;3829;50.798;4.358;2023-05-23T09:05:12;15.50;99.90
7576;DHT22;3829;50.798;4.358;2023-05-23T09:07:39;15.60;99.90
7576;DHT22;3829;50.798;4.358;2023-05-23T09:10:06;16.20;99.90
7576;DHT22;3829;50.798;4.358;2023-05-23T09:12:33;16.70;99.90
7576;DHT22;3829;50.798;4.358;2023-05-23T09:15:02;17.50;99.90
7576;DHT22;3829;50.798;4.358;2023-05-23T09:17:27;17.60;99.90
7576;DHT22;3829;50.798;4.358;2023-05-23T09:19:53;17.40;99.90
7576;DHT22;3829;50.798;4.358;2023-05-23T09:22:23;17.30;99.90
7576;DHT22;3829;50.798;4.358;2023-05-23T09:24:50;16.80;99.90
7576;DHT22;3829;50.798;4.358;2023-05-23T09:27:17;16.40;99.90
7576;DHT22;3829;50.798;4.358;2023-05-23T09:29:43;16.40;99.90
7576;DHT22;3829;50.798;4.358;2023-05-23T09:32:17;16.40;99.90
7576;DHT22;3829;50.798;4.358;2023-05-23T09:35:01;16.40;99.90
7576;DHT22;3829;50.798;4.358;2023-05-23T09:37:31;17.00;99.90
7576;DHT22;3829;50.798;4.358;2023-05-23T09:39:59;17.20;99.90
7576;DHT22;3829;50.798;4.358;2023-05-23T09:42:32;16.90;99.90
7576;DHT22;3829;50.798;4.358;2023-05-23T09:44:58;17.10;99.90
7576;DHT22;3829;50.798;4.358;2023-05-23T09:47:24;16.70;99.90
7576;DHT22;3829;50.798;4.358;2023-05-23T09:49:51;16.90;99.90
7576;DHT22;3829;50.798;4.358;2023-05-23T09:52:17;16.80;99.90
7576;DHT22;3829;50.798;4.358;2023-05-23T09:54:45;16.40;99.90
7576;DHT22;3829;50.798;4.358;2023-05-23T09:57:11;16.40;99.90
7576;DHT22;3829;50.798;4.358;2023-05-23T09:59:40;16.50;99.90
7576;DHT22;3829;50.798;4.358;2023-05-23T10:02:10;16.70;99.90
7576;DHT22;3829;50.798;4.358;2023-05-23T10:04:36;17.00;99.90
7576;DHT22;3829;50.798;4.358;2023-05-23T10:07:09;17.10;99.90
7576;DHT22;3829;50.798;4.358;2023-05-23T10:09:39;16.90;99.90
7576;DHT22;3829;50.798;4.358;2023-05-23T10:14:54;16.90;99.90
7576;DHT22;3829;50.798;4.358;2023-05-23T10:17:28;16.60;99.90
7576;DHT22;3829;50.798;4.358;2023-05-23T10:20:02;16.70;99.90
7576;DHT22;3829;50.798;4.358;2023-05-23T10:22:34;16.80;99.90
7576;DHT22;3829;50.798;4.358;2023-05-23T10:25:02;16.60;99.90
7576;DHT22;3829;50.798;4.358;2023-05-23T10:27:28;16.50;99.90
7576;DHT22;3829;50.798;4.358;2023-05-23T10:29:54;16.30;99.90
7576;DHT22;3829;50.798;4.358;2023-05-23T10:32:20;16.70;99.90
7576;DHT22;3829;50.798;4.358;2023-05-23T10:34:56;17.20;99.90
7576;DHT22;3829;50.798;4.358;2023-05-23T10:37:39;17.30;99.90
7576;DHT22;3829;50.798;4.358;2023-05-23T10:40:26;17.30;99.90
7576;DHT22;3829;50.798;4.358;2023-05-23T10:45:41;17.70;99.90
7576;DHT22;3829;50.798;4.358;2023-05-23T10:48:21;17.60;99.90
7576;DHT22;3829;50.798;4.358;2023-05-23T10:51:02;17.80;99.90
7576;DHT22;3829;50.798;4.358;2023-05-23T10:53:30;17.90;99.90
7576;DHT22;3829;50.798;4.358;2023-05-23T10:55:56;17.70;99.90
7576;DHT22;3829;50.798;4.358;2023-05-23T10:58:22;18.00;99.90
7576;DHT22;3829;50.798;4.358;2023-05-23T11:00:52;17.90;99.90
7576;DHT22;3829;50.798;4.358;2023-05-23T11:03:29;17.80;99.90
7576;DHT22;3829;50.798;4.358;2023-05-23T11:05:56;17.90;99.90
7576;DHT22;3829;50.798;4.358;2023-05-23T11:08:23;18.10;99.90
7576;DHT22;3829;50.798;4.358;2023-05-23T11:10:59;18.40;99.90
7576;DHT22;3829;50.798;4.358;2023-05-23T11:13:54;18.50;99.90
7576;DHT22;3829;50.798;4.358;2023-05-23T11:16:24;18.70;99.90
7576;DHT22;3829;50.798;4.358;2023-05-23T11:18:50;19.00;99.90
7576;DHT22;3829;50.798;4.358;2023-05-23T11:21:16;19.00;99.90
7576;DHT22;3829;50.798;4.358;2023-05-23T11:23:43;18.70;99.90
7576;DHT22;3829;50.798;4.358;2023-05-23T11:26:27;19.00;99.90
7576;DHT22;3829;50.798;4.358;2023-05-23T11:28:55;18.80;99.90
7576;DHT22;3829;50.798;4.358;2023-05-23T11:31:21;18.50;99.90
7576;DHT22;3829;50.798;4.358;2023-05-23T11:33:50;18.20;99.90
7576;DHT22;3829;50.798;4.358;2023-05-23T11:36:16;18.20;99.90
7576;DHT22;3829;50.798;4.358;2023-05-23T11:38:41;18.20;99.90
7576;DHT22;3829;50.798;4.358;2023-05-23T11:41:07;18.20;99.90
7576;DHT22;3829;50.798;4.358;2023-05-23T11:43:32;18.70;99.90
7576;DHT22;3829;50.798;4.358;2023-05-23T11:46:07;19.50;99.90
7576;DHT22;3829;50.798;4.358;2023-05-23T11:48:32;19.70;99.90
7576;DHT22;3829;50.798;4.358;2023-05-23T11:50:58;19.50;99.90
7576;DHT22;3829;50.798;4.358;2023-05-23T11:53:26;19.40;99.90
7576;DHT22;3829;50.798;4.358;2023-05-23T11:55:54;19.10;99.90
7576;DHT22;3829;50.798;4.358;2023-05-23T11:58:21;18.90;99.90
7576;DHT22;3829;50.798;4.358;2023-05-23T12:00:47;18.50;99.90
7576;DHT22;3829;50.798;4.358;2023-05-23T12:03:13;17.90;99.90
7576;DHT22;3829;50.798;4.358;2023-05-23T12:05:38;18.40;99.90
7576;DHT22;3829;50.798;4.358;2023-05-23T12:08:04;18.20;99.90
7576;DHT22;3829;50.798;4.358;2023-05-23T12:10:30;18.00;99.90
7576;DHT22;3829;50.798;4.358;2023-05-23T12:12:56;18.40;99.90
7576;DHT22;3829;50.798;4.358;2023-05-23T12:15:25;18.90;99.90
7576;DHT22;3829;50.798;4.358;2023-05-23T12:17:53;19.00;99.90
7576;DHT22;3829;50.798;4.358;2023-05-23T12:20:19;18.50;99.90
7576;DHT22;3829;50.798;4.358;2023-05-23T12:22:45;18.40;99.90
7576;DHT22;3829;50.798;4.358;2023-05-23T12:25:11;18.90;99.90
7576;DHT22;3829;50.798;4.358;2023-05-23T12:27:39;18.90;99.90
7576;DHT22;3829;50.798;4.358;2023-05-23T12:30:07;18.90;99.90
7576;DHT22;3829;50.798;4.358;2023-05-23T12:32:35;18.70;99.90
7576;DHT22;3829;50.798;4.358;2023-05-23T12:35:03;18.40;99.90
7576;DHT22;3829;50.798;4.358;2023-05-23T12:37:29;18.40;99.90
7576;DHT22;3829;50.798;4.358;2023-05-23T12:39:55;19.20;99.90
7576;DHT22;3829;50.798;4.358;2023-05-23T12:42:20;19.30;99.90
7576;DHT22;3829;50.798;4.358;2023-05-23T12:44:50;18.90;99.90
7576;DHT22;3829;50.798;4.358;2023-05-23T12:47:16;18.70;99.90
7576;DHT22;3829;50.798;4.358;2023-05-23T12:49:42;18.70;99.90
7576;DHT22;3829;50.798;4.358;2023-05-23T12:52:09;19.20;99.90
7576;DHT22;3829;50.798;4.358;2023-05-23T12:54:35;19.30;99.90
7576;DHT22;3829;50.798;4.358;2023-05-23T12:57:00;19.50;99.90
7576;DHT22;3829;50.798;4.358;2023-05-23T12:59:26;19.80;99.90
7576;DHT22;3829;50.798;4.358;2023-05-23T13:01:51;19.40;99.90
7576;DHT22;3829;50.798;4.358;2023-05-23T13:04:17;19.10;99.90
7576;DHT22;3829;50.798;4.358;2023-05-23T13:06:42;18.50;99.90
7576;DHT22;3829;50.798;4.358;2023-05-23T13:09:08;18.90;99.90
7576;DHT22;3829;50.798;4.358;2023-05-23T13:11:34;19.20;99.90
7576;DHT22;3829;50.798;4.358;2023-05-23T13:14:00;18.70;99.90
7576;DHT22;3829;50.798;4.358;2023-05-23T13:16:25;19.50;99.90
7576;DHT22;3829;50.798;4.358;2023-05-23T13:18:51;20.80;99.90
7576;DHT22;3829;50.798;4.358;2023-05-23T13:21:17;20.70;99.90
7576;DHT22;3829;50.798;4.358;2023-05-23T13:23:43;20.40;99.90
7576;DHT22;3829;50.798;4.358;2023-05-23T13:26:08;20.20;99.90
7576;DHT22;3829;50.798;4.358;2023-05-23T13:28:34;20.10;99.90
7576;DHT22;3829;50.798;4.358;2023-05-23T13:30:59;19.40;99.90
7576;DHT22;3829;50.798;4.358;2023-05-23T13:33:25;18.60;99.90
7576;DHT22;3829;50.798;4.358;2023-05-23T13:35:51;19.00;99.90
7576;DHT22;3829;50.798;4.358;2023-05-23T13:38:18;19.70;99.90
7576;DHT22;3829;50.798;4.358;2023-05-23T13:40:44;19.80;99.90
7576;DHT22;3829;50.798;4.358;2023-05-23T13:43:11;19.10;99.90
7576;DHT22;3829;50.798;4.358;2023-05-23T13:45:36;19.40;99.90
7576;DHT22;3829;50.798;4.358;2023-05-23T13:48:02;20.30;99.90
7576;DHT22;3829;50.798;4.358;2023-05-23T13:50:28;21.10;99.90
7576;DHT22;3829;50.798;4.358;2023-05-23T13:52:53;20.40;99.90
7576;DHT22;3829;50.798;4.358;2023-05-23T13:55:19;21.50;99.90
7576;DHT22;3829;50.798;4.358;2023-05-23T13:57:45;21.30;99.90
7576;DHT22;3829;50.798;4.358;2023-05-23T14:00:11;21.30;99.90
7576;DHT22;3829;50.798;4.358;2023-05-23T14:02:37;21.00;99.90
7576;DHT22;3829;50.798;4.358;2023-05-23T14:05:03;22.10;99.90
7576;DHT22;3829;50.798;4.358;2023-05-23T14:07:29;22.50;99.90
7576;DHT22;3829;50.798;4.358;2023-05-23T14:09:55;23.40;99.90
7576;DHT22;3829;50.798;4.358;2023-05-23T14:12:21;23.30;99.90
7576;DHT22;3829;50.798;4.358;2023-05-23T14:14:47;22.40;99.90
7576;DHT22;3829;50.798;4.358;2023-05-23T14:17:15;21.70;99.90
7576;DHT22;3829;50.798;4.358;2023-05-23T14:19:41;22.20;99.90
7576;DHT22;3829;50.798;4.358;2023-05-23T14:22:07;21.20;99.90
7576;DHT22;3829;50.798;4.358;2023-05-23T14:24:32;21.40;99.90
7576;DHT22;3829;50.798;4.358;2023-05-23T14:26:58;21.10;99.90
7576;DHT22;3829;50.798;4.358;2023-05-23T14:29:23;20.30;99.90
7576;DHT22;3829;50.798;4.358;2023-05-23T14:31:49;20.20;99.90
7576;DHT22;3829;50.798;4.358;2023-05-23T14:34:14;21.30;99.90
7576;DHT22;3829;50.798;4.358;2023-05-23T14:36:40;21.10;99.90
7576;DHT22;3829;50.798;4.358;2023-05-23T14:39:05;21.10;99.90
7576;DHT22;3829;50.798;4.358;2023-05-23T14:41:32;21.20;99.90
7576;DHT22;3829;50.798;4.358;2023-05-23T14:43:57;22.40;99.90
7576;DHT22;3829;50.798;4.358;2023-05-23T14:46:23;23.20;99.90
7576;DHT22;3829;50.798;4.358;2023-05-23T14:48:49;23.20;99.90
7576;DHT22;3829;50.798;4.358;2023-05-23T14:51:14;22.50;99.90
7576;DHT22;3829;50.798;4.358;2023-05-23T14:53:40;22.50;99.90
7576;DHT22;3829;50.798;4.358;2023-05-23T14:56:06;21.90;99.90
7576;DHT22;3829;50.798;4.358;2023-05-23T14:58:31;22.20;99.90
7576;DHT22;3829;50.798;4.358;2023-05-23T15:00:57;22.70;99.90
7576;DHT22;3829;50.798;4.358;2023-05-23T15:03:22;21.40;99.90
7576;DHT22;3829;50.798;4.358;2023-05-23T15:05:48;21.00;99.90
7576;DHT22;3829;50.798;4.358;2023-05-23T15:08:15;21.90;99.90
7576;DHT22;3829;50.798;4.358;2023-05-23T15:10:41;21.80;99.90
7576;DHT22;3829;50.798;4.358;2023-05-23T15:13:09;21.30;99.90
7576;DHT22;3829;50.798;4.358;2023-05-23T15:15:35;21.60;99.90
7576;DHT22;3829;50.798;4.358;2023-05-23T15:18:03;20.70;99.90
7576;DHT22;3829;50.798;4.358;2023-05-23T15:20:33;21.60;99.90
7576;DHT22;3829;50.798;4.358;2023-05-23T15:22:59;20.60;99.90
7576;DHT22;3829;50.798;4.358;2023-05-23T15:25:24;21.40;99.90
7576;DHT22;3829;50.798;4.358;2023-05-23T15:27:51;22.40;99.90
7576;DHT22;3829;50.798;4.358;2023-05-23T15:30:17;21.30;99.90
7576;DHT22;3829;50.798;4.358;2023-05-23T15:32:43;20.80;99.90
7576;DHT22;3829;50.798;4.358;2023-05-23T15:35:08;20.10;99.90
7576;DHT22;3829;50.798;4.358;2023-05-23T15:37:34;19.90;99.90
7576;DHT22;3829;50.798;4.358;2023-05-23T15:40:00;19.60;99.90
7576;DHT22;3829;50.798;4.358;2023-05-23T15:42:26;19.40;99.90
7576;DHT22;3829;50.798;4.358;2023-05-23T15:44:52;19.50;99.90
7576;DHT22;3829;50.798;4.358;2023-05-23T15:47:18;19.60;99.90
7576;DHT22;3829;50.798;4.358;2023-05-23T15:49:45;19.70;99.90
7576;DHT22;3829;50.798;4.358;2023-05-23T15:52:10;19.50;99.90
7576;DHT22;3829;50.798;4.358;2023-05-23T15:54:36;18.70;99.90
7576;DHT22;3829;50.798;4.358;2023-05-23T15:57:02;18.60;99.90
7576;DHT22;3829;50.798;4.358;2023-05-23T15:59:27;18.40;99.90
7576;DHT22;3829;50.798;4.358;2023-05-23T16:01:53;18.60;99.90
7576;DHT22;3829;50.798;4.358;2023-05-23T16:04:19;19.00;99.90
7576;DHT22;3829;50.798;4.358;2023-05-23T16:06:44;19.40;99.90
7576;DHT22;3829;50.798;4.358;2023-05-23T16:09:10;19.50;99.90